sensor_id;sensor_type;location;lat;lon;timestamp;P1;durP1;ratioP1;P2;durP2;ratioP2
20124;SDS011;10223;50.862;4.360;2023-05-08T00:01:57;15.80;;;11.63;;
20124;SDS011;10223;50.862;4.360;2023-05-08T00:04:24;15.35;;;11.02;;
20124;SDS011;10223;50.862;4.360;2023-05-08T00:06:51;16.48;;;11.18;;
20124;SDS011;10223;50.862;4.360;2023-05-08T00:09:19;18.10;;;11.43;;
20124;SDS011;10223;50.862;4.360;2023-05-08T00:11:46;15.57;;;11.50;;
20124;SDS011;10223;50.862;4.360;2023-05-08T00:14:13;15.15;;;11.80;;
20124;SDS011;10223;50.862;4.360;2023-05-08T00:16:40;17.65;;;12.20;;
20124;SDS011;10223;50.862;4.360;2023-05-08T00:19:23;19.25;;;12.52;;
20124;SDS011;10223;50.862;4.360;2023-05-08T00:21:50;18.65;;;13.20;;
20124;SDS011;10223;50.862;4.360;2023-05-08T00:24:17;19.50;;;13.43;;
20124;SDS011;10223;50.862;4.360;2023-05-08T00:26:44;19.87;;;13.20;;
20124;SDS011;10223;50.862;4.360;2023-05-08T00:29:11;19.17;;;14.00;;
20124;SDS011;10223;50.862;4.360;2023-05-08T00:31:38;22.37;;;13.83;;
20124;SDS011;10223;50.862;4.360;2023-05-08T00:34:05;21.87;;;15.47;;
20124;SDS011;10223;50.862;4.360;2023-05-08T00:36:33;19.77;;;14.57;;
20124;SDS011;10223;50.862;4.360;2023-05-08T00:39:00;22.80;;;15.37;;
20124;SDS011;10223;50.862;4.360;2023-05-08T00:41:27;23.53;;;16.33;;
20124;SDS011;10223;50.862;4.360;2023-05-08T00:43:54;22.50;;;16.20;;
20124;SDS011;10223;50.862;4.360;2023-05-08T00:46:21;24.13;;;16.27;;
20124;SDS011;10223;50.862;4.360;2023-05-08T00:48:48;22.50;;;16.73;;
20124;SDS011;10223;50.862;4.360;2023-05-08T00:51:15;44.53;;;17.50;;
20124;SDS011;10223;50.862;4.360;2023-05-08T00:53:44;31.40;;;16.90;;
20124;SDS011;10223;50.862;4.360;2023-05-08T00:56:12;28.70;;;16.03;;
20124;SDS011;10223;50.862;4.360;2023-05-08T00:58:41;23.43;;;16.23;;
20124;SDS011;10223;50.862;4.360;2023-05-08T01:01:08;25.90;;;16.93;;
20124;SDS011;10223;50.862;4.360;2023-05-08T01:03:36;26.07;;;16.53;;
20124;SDS011;10223;50.862;4.360;2023-05-08T01:06:04;25.80;;;15.70;;
20124;SDS011;10223;50.862;4.360;2023-05-08T01:08:32;40.40;;;16.17;;
20124;SDS011;10223;50.862;4.360;2023-05-08T01:11:06;68.60;;;16.63;;
20124;SDS011;10223;50.862;4.360;2023-05-08T01:13:44;41.50;;;16.10;;
20124;SDS011;10223;50.862;4.360;2023-05-08T01:16:19;31.60;;;16.03;;
20124;SDS011;10223;50.862;4.360;2023-05-08T01:19:00;61.07;;;17.20;;
20124;SDS011;10223;50.862;4.360;2023-05-08T01:21:33;34.43;;;17.20;;
20124;SDS011;10223;50.862;4.360;2023-05-08T01:30:38;32.37;;;21.27;;
20124;SDS011;10223;50.862;4.360;2023-05-08T01:33:26;31.67;;;20.60;;
20124;SDS011;10223;50.862;4.360;2023-05-08T01:35:59;40.40;;;23.97;;
20124;SDS011;10223;50.862;4.360;2023-05-08T01:38:38;40.73;;;24.83;;
20124;SDS011;10223;50.862;4.360;2023-05-08T01:41:13;47.63;;;27.55;;
20124;SDS011;10223;50.862;4.360;2023-05-08T01:43:47;48.97;;;28.97;;
20124;SDS011;10223;50.862;4.360;2023-05-08T01:46:21;56.43;;;31.20;;
20124;SDS011;10223;50.862;4.360;2023-05-08T01:48:52;56.90;;;32.70;;
20124;SDS011;10223;50.862;4.360;2023-05-08T01:51:26;57.77;;;32.50;;
20124;SDS011;10223;50.862;4.360;2023-05-08T01:53:57;63.77;;;34.20;;
20124;SDS011;10223;50.862;4.360;2023-05-08T01:56:29;63.97;;;36.00;;
20124;SDS011;10223;50.862;4.360;2023-05-08T01:58:58;75.13;;;41.10;;
20124;SDS011;10223;50.862;4.360;2023-05-08T02:01:26;81.97;;;43.00;;
20124;SDS011;10223;50.862;4.360;2023-05-08T02:03:55;87.10;;;43.47;;
20124;SDS011;10223;50.862;4.360;2023-05-08T02:06:23;96.37;;;48.43;;
20124;SDS011;10223;50.862;4.360;2023-05-08T02:08:52;100.78;;;48.88;;
20124;SDS011;10223;50.862;4.360;2023-05-08T02:11:21;102.90;;;49.90;;
20124;SDS011;10223;50.862;4.360;2023-05-08T02:13:49;113.17;;;51.83;;
20124;SDS011;10223;50.862;4.360;2023-05-08T02:16:16;101.10;;;49.23;;
20124;SDS011;10223;50.862;4.360;2023-05-08T02:18:46;102.20;;;48.27;;
20124;SDS011;10223;50.862;4.360;2023-05-08T02:21:18;94.83;;;47.27;;
20124;SDS011;10223;50.862;4.360;2023-05-08T02:23:47;102.33;;;49.07;;
20124;SDS011;10223;50.862;4.360;2023-05-08T02:26:15;97.60;;;47.50;;
20124;SDS011;10223;50.862;4.360;2023-05-08T02:28:43;98.43;;;47.17;;
20124;SDS011;10223;50.862;4.360;2023-05-08T02:31:11;98.77;;;47.90;;
20124;SDS011;10223;50.862;4.360;2023-05-08T02:33:38;95.80;;;44.70;;
20124;SDS011;10223;50.862;4.360;2023-05-08T02:36:08;94.93;;;45.90;;
20124;SDS011;10223;50.862;4.360;2023-05-08T02:38:40;94.63;;;44.33;;
20124;SDS011;10223;50.862;4.360;2023-05-08T02:41:09;98.83;;;47.37;;
20124;SDS011;10223;50.862;4.360;2023-05-08T02:43:38;100.60;;;47.57;;
20124;SDS011;10223;50.862;4.360;2023-05-08T02:46:08;100.60;;;48.40;;
20124;SDS011;10223;50.862;4.360;2023-05-08T02:48:40;102.97;;;48.33;;
20124;SDS011;10223;50.862;4.360;2023-05-08T02:51:17;98.43;;;48.10;;
20124;SDS011;10223;50.862;4.360;2023-05-08T02:53:51;97.97;;;48.17;;
20124;SDS011;10223;50.862;4.360;2023-05-08T02:56:26;97.10;;;46.20;;
20124;SDS011;10223;50.862;4.360;2023-05-08T02:58:59;95.33;;;47.73;;
20124;SDS011;10223;50.862;4.360;2023-05-08T03:01:36;103.97;;;48.67;;
20124;SDS011;10223;50.862;4.360;2023-05-08T03:04:08;97.47;;;48.73;;
20124;SDS011;10223;50.862;4.360;2023-05-08T03:06:40;94.87;;;47.17;;
20124;SDS011;10223;50.862;4.360;2023-05-08T03:09:15;96.47;;;48.07;;
20124;SDS011;10223;50.862;4.360;2023-05-08T03:11:46;91.07;;;46.60;;
20124;SDS011;10223;50.862;4.360;2023-05-08T03:14:16;94.37;;;48.43;;
20124;SDS011;10223;50.862;4.360;2023-05-08T03:16:47;98.80;;;49.63;;
20124;SDS011;10223;50.862;4.360;2023-05-08T03:19:19;104.27;;;49.93;;
20124;SDS011;10223;50.862;4.360;2023-05-08T03:21:49;109.87;;;54.07;;
20124;SDS011;10223;50.862;4.360;2023-05-08T03:24:21;104.07;;;50.60;;
20124;SDS011;10223;50.862;4.360;2023-05-08T03:26:49;112.73;;;51.00;;
20124;SDS011;10223;50.862;4.360;2023-05-08T03:29:20;107.90;;;49.80;;
20124;SDS011;10223;50.862;4.360;2023-05-08T03:31:49;110.60;;;51.77;;
20124;SDS011;10223;50.862;4.360;2023-05-08T03:34:18;106.17;;;50.13;;
20124;SDS011;10223;50.862;4.360;2023-05-08T03:36:47;106.23;;;49.33;;
20124;SDS011;10223;50.862;4.360;2023-05-08T03:39:14;103.07;;;50.33;;
20124;SDS011;10223;50.862;4.360;2023-05-08T03:41:42;103.67;;;49.90;;
20124;SDS011;10223;50.862;4.360;2023-05-08T03:44:09;100.10;;;48.80;;
20124;SDS011;10223;50.862;4.360;2023-05-08T03:46:37;94.60;;;47.27;;
20124;SDS011;10223;50.862;4.360;2023-05-08T03:49:07;100.47;;;49.00;;
20124;SDS011;10223;50.862;4.360;2023-05-08T03:51:35;102.53;;;48.00;;
20124;SDS011;10223;50.862;4.360;2023-05-08T03:54:04;96.50;;;47.40;;
20124;SDS011;10223;50.862;4.360;2023-05-08T03:56:31;104.27;;;47.07;;
20124;SDS011;10223;50.862;4.360;2023-05-08T03:59:02;102.40;;;48.03;;
20124;SDS011;10223;50.862;4.360;2023-05-08T04:01:43;94.90;;;46.30;;
20124;SDS011;10223;50.862;4.360;2023-05-08T04:04:17;95.90;;;45.07;;
20124;SDS011;10223;50.862;4.360;2023-05-08T04:06:48;101.63;;;48.33;;
20124;SDS011;10223;50.862;4.360;2023-05-08T04:09:23;100.37;;;46.93;;
20124;SDS011;10223;50.862;4.360;2023-05-08T04:11:59;107.80;;;49.80;;
20124;SDS011;10223;50.862;4.360;2023-05-08T04:14:33;105.67;;;49.20;;
20124;SDS011;10223;50.862;4.360;2023-05-08T04:17:04;102.70;;;48.67;;
20124;SDS011;10223;50.862;4.360;2023-05-08T04:19:35;109.67;;;47.93;;
20124;SDS011;10223;50.862;4.360;2023-05-08T04:22:06;107.07;;;46.67;;
20124;SDS011;10223;50.862;4.360;2023-05-08T04:24:34;108.67;;;49.03;;
20124;SDS011;10223;50.862;4.360;2023-05-08T04:27:06;110.30;;;48.57;;
20124;SDS011;10223;50.862;4.360;2023-05-08T04:29:35;105.03;;;47.57;;
20124;SDS011;10223;50.862;4.360;2023-05-08T04:32:03;106.60;;;46.67;;
20124;SDS011;10223;50.862;4.360;2023-05-08T04:34:31;110.30;;;47.77;;
20124;SDS011;10223;50.862;4.360;2023-05-08T04:36:58;110.00;;;48.07;;
20124;SDS011;10223;50.862;4.360;2023-05-08T04:39:25;116.43;;;47.77;;
20124;SDS011;10223;50.862;4.360;2023-05-08T04:41:52;111.53;;;46.40;;
20124;SDS011;10223;50.862;4.360;2023-05-08T04:44:26;105.77;;;45.40;;
20124;SDS011;10223;50.862;4.360;2023-05-08T04:46:55;104.37;;;44.40;;
20124;SDS011;10223;50.862;4.360;2023-05-08T04:49:22;103.43;;;46.03;;
20124;SDS011;10223;50.862;4.360;2023-05-08T04:51:49;105.60;;;44.40;;
20124;SDS011;10223;50.862;4.360;2023-05-08T04:54:16;109.23;;;45.97;;
20124;SDS011;10223;50.862;4.360;2023-05-08T04:56:43;117.00;;;47.77;;
20124;SDS011;10223;50.862;4.360;2023-05-08T04:59:09;115.27;;;48.43;;
20124;SDS011;10223;50.862;4.360;2023-05-08T05:01:36;118.70;;;48.90;;
20124;SDS011;10223;50.862;4.360;2023-05-08T05:04:05;110.17;;;46.47;;
20124;SDS011;10223;50.862;4.360;2023-05-08T05:06:32;105.38;;;46.17;;
20124;SDS011;10223;50.862;4.360;2023-05-08T05:08:59;113.63;;;48.10;;
20124;SDS011;10223;50.862;4.360;2023-05-08T05:11:26;118.10;;;48.10;;
20124;SDS011;10223;50.862;4.360;2023-05-08T05:13:53;111.20;;;46.00;;
20124;SDS011;10223;50.862;4.360;2023-05-08T05:16:20;101.67;;;44.63;;
20124;SDS011;10223;50.862;4.360;2023-05-08T05:18:47;101.90;;;43.53;;
20124;SDS011;10223;50.862;4.360;2023-05-08T05:21:26;103.00;;;44.97;;
20124;SDS011;10223;50.862;4.360;2023-05-08T05:23:53;103.77;;;44.03;;
20124;SDS011;10223;50.862;4.360;2023-05-08T05:26:20;99.77;;;43.07;;
20124;SDS011;10223;50.862;4.360;2023-05-08T05:28:47;108.03;;;45.43;;
20124;SDS011;10223;50.862;4.360;2023-05-08T05:31:14;102.67;;;44.10;;
20124;SDS011;10223;50.862;4.360;2023-05-08T05:33:41;111.33;;;44.80;;
20124;SDS011;10223;50.862;4.360;2023-05-08T05:36:08;112.50;;;49.60;;
20124;SDS011;10223;50.862;4.360;2023-05-08T05:38:36;111.30;;;48.93;;
20124;SDS011;10223;50.862;4.360;2023-05-08T05:41:03;115.23;;;49.60;;
20124;SDS011;10223;50.862;4.360;2023-05-08T05:43:31;117.50;;;49.37;;
20124;SDS011;10223;50.862;4.360;2023-05-08T05:46:02;108.23;;;47.03;;
20124;SDS011;10223;50.862;4.360;2023-05-08T05:48:30;111.67;;;48.10;;
20124;SDS011;10223;50.862;4.360;2023-05-08T05:50:57;115.27;;;48.60;;
20124;SDS011;10223;50.862;4.360;2023-05-08T05:53:25;120.07;;;49.80;;
20124;SDS011;10223;50.862;4.360;2023-05-08T05:55:53;115.50;;;52.40;;
20124;SDS011;10223;50.862;4.360;2023-05-08T05:58:20;104.83;;;47.00;;
20124;SDS011;10223;50.862;4.360;2023-05-08T06:00:47;90.43;;;42.53;;
20124;SDS011;10223;50.862;4.360;2023-05-08T06:03:14;89.40;;;41.30;;
20124;SDS011;10223;50.862;4.360;2023-05-08T06:05:41;91.10;;;41.47;;
20124;SDS011;10223;50.862;4.360;2023-05-08T06:08:08;90.17;;;39.97;;
20124;SDS011;10223;50.862;4.360;2023-05-08T06:10:35;95.40;;;42.77;;
20124;SDS011;10223;50.862;4.360;2023-05-08T06:13:03;93.27;;;44.27;;
20124;SDS011;10223;50.862;4.360;2023-05-08T06:15:30;103.60;;;44.80;;
20124;SDS011;10223;50.862;4.360;2023-05-08T06:17:57;98.30;;;43.77;;
20124;SDS011;10223;50.862;4.360;2023-05-08T06:20:24;88.53;;;42.53;;
20124;SDS011;10223;50.862;4.360;2023-05-08T06:22:51;101.50;;;45.23;;
20124;SDS011;10223;50.862;4.360;2023-05-08T06:25:21;93.73;;;42.77;;
20124;SDS011;10223;50.862;4.360;2023-05-08T06:27:52;104.07;;;43.70;;
20124;SDS011;10223;50.862;4.360;2023-05-08T06:30:20;92.70;;;42.93;;
20124;SDS011;10223;50.862;4.360;2023-05-08T06:32:47;95.27;;;43.33;;
20124;SDS011;10223;50.862;4.360;2023-05-08T06:35:14;101.40;;;45.17;;
20124;SDS011;10223;50.862;4.360;2023-05-08T06:37:42;114.23;;;53.60;;
20124;SDS011;10223;50.862;4.360;2023-05-08T06:40:10;101.18;;;44.80;;
20124;SDS011;10223;50.862;4.360;2023-05-08T06:42:38;98.33;;;44.57;;
20124;SDS011;10223;50.862;4.360;2023-05-08T06:45:05;100.33;;;45.67;;
20124;SDS011;10223;50.862;4.360;2023-05-08T06:47:34;96.13;;;43.60;;
20124;SDS011;10223;50.862;4.360;2023-05-08T06:50:01;105.03;;;46.57;;
20124;SDS011;10223;50.862;4.360;2023-05-08T06:52:29;110.60;;;44.93;;
20124;SDS011;10223;50.862;4.360;2023-05-08T06:54:56;106.77;;;43.50;;
20124;SDS011;10223;50.862;4.360;2023-05-08T06:57:23;95.90;;;42.33;;
20124;SDS011;10223;50.862;4.360;2023-05-08T06:59:51;94.40;;;43.30;;
20124;SDS011;10223;50.862;4.360;2023-05-08T07:02:18;94.00;;;41.30;;
20124;SDS011;10223;50.862;4.360;2023-05-08T07:04:46;98.47;;;42.27;;
20124;SDS011;10223;50.862;4.360;2023-05-08T07:07:13;97.27;;;41.57;;
20124;SDS011;10223;50.862;4.360;2023-05-08T07:09:40;91.63;;;39.60;;
20124;SDS011;10223;50.862;4.360;2023-05-08T07:12:07;94.77;;;40.40;;
20124;SDS011;10223;50.862;4.360;2023-05-08T07:14:34;85.97;;;39.20;;
20124;SDS011;10223;50.862;4.360;2023-05-08T07:17:02;87.10;;;38.13;;
20124;SDS011;10223;50.862;4.360;2023-05-08T07:19:34;95.27;;;40.70;;
20124;SDS011;10223;50.862;4.360;2023-05-08T07:22:03;87.17;;;38.53;;
20124;SDS011;10223;50.862;4.360;2023-05-08T07:24:30;83.53;;;37.63;;
20124;SDS011;10223;50.862;4.360;2023-05-08T07:26:58;87.93;;;37.73;;
20124;SDS011;10223;50.862;4.360;2023-05-08T07:29:25;86.23;;;37.13;;
20124;SDS011;10223;50.862;4.360;2023-05-08T07:31:52;88.70;;;38.67;;
20124;SDS011;10223;50.862;4.360;2023-05-08T07:34:19;91.17;;;38.73;;
20124;SDS011;10223;50.862;4.360;2023-05-08T07:36:46;88.40;;;38.40;;
20124;SDS011;10223;50.862;4.360;2023-05-08T07:39:15;83.97;;;38.37;;
20124;SDS011;10223;50.862;4.360;2023-05-08T07:41:41;86.40;;;36.23;;
20124;SDS011;10223;50.862;4.360;2023-05-08T07:44:09;75.80;;;33.57;;
20124;SDS011;10223;50.862;4.360;2023-05-08T07:46:36;81.57;;;33.40;;
20124;SDS011;10223;50.862;4.360;2023-05-08T07:49:03;76.53;;;33.03;;
20124;SDS011;10223;50.862;4.360;2023-05-08T07:51:31;71.47;;;31.00;;
20124;SDS011;10223;50.862;4.360;2023-05-08T07:53:58;73.60;;;31.23;;
20124;SDS011;10223;50.862;4.360;2023-05-08T07:56:26;73.87;;;33.73;;
20124;SDS011;10223;50.862;4.360;2023-05-08T07:58:53;71.77;;;32.13;;
20124;SDS011;10223;50.862;4.360;2023-05-08T08:01:20;71.87;;;31.47;;
20124;SDS011;10223;50.862;4.360;2023-05-08T08:03:47;66.53;;;30.10;;
20124;SDS011;10223;50.862;4.360;2023-05-08T08:06:14;65.17;;;30.63;;
20124;SDS011;10223;50.862;4.360;2023-05-08T08:08:42;71.00;;;29.77;;
20124;SDS011;10223;50.862;4.360;2023-05-08T08:11:10;78.80;;;31.93;;
20124;SDS011;10223;50.862;4.360;2023-05-08T08:13:38;77.10;;;32.40;;
20124;SDS011;10223;50.862;4.360;2023-05-08T08:16:05;78.47;;;32.97;;
20124;SDS011;10223;50.862;4.360;2023-05-08T08:18:33;75.57;;;31.60;;
20124;SDS011;10223;50.862;4.360;2023-05-08T08:21:03;74.13;;;32.57;;
20124;SDS011;10223;50.862;4.360;2023-05-08T08:23:30;84.93;;;31.97;;
20124;SDS011;10223;50.862;4.360;2023-05-08T08:25:58;79.37;;;32.43;;
20124;SDS011;10223;50.862;4.360;2023-05-08T08:28:25;86.00;;;36.30;;
20124;SDS011;10223;50.862;4.360;2023-05-08T08:30:53;79.17;;;34.33;;
20124;SDS011;10223;50.862;4.360;2023-05-08T08:33:20;77.40;;;32.73;;
20124;SDS011;10223;50.862;4.360;2023-05-08T08:35:47;76.90;;;33.03;;
20124;SDS011;10223;50.862;4.360;2023-05-08T08:38:18;78.40;;;31.07;;
20124;SDS011;10223;50.862;4.360;2023-05-08T08:40:45;88.83;;;37.37;;
20124;SDS011;10223;50.862;4.360;2023-05-08T08:43:26;82.03;;;35.77;;
20124;SDS011;10223;50.862;4.360;2023-05-08T08:45:54;109.67;;;37.63;;
20124;SDS011;10223;50.862;4.360;2023-05-08T08:48:23;78.97;;;33.53;;
20124;SDS011;10223;50.862;4.360;2023-05-08T08:50:57;93.93;;;38.83;;
20124;SDS011;10223;50.862;4.360;2023-05-08T08:53:29;91.53;;;36.50;;
20124;SDS011;10223;50.862;4.360;2023-05-08T08:56:02;96.73;;;37.40;;
20124;SDS011;10223;50.862;4.360;2023-05-08T08:58:35;97.83;;;37.47;;
20124;SDS011;10223;50.862;4.360;2023-05-08T09:01:08;101.10;;;37.43;;
20124;SDS011;10223;50.862;4.360;2023-05-08T09:03:43;107.40;;;37.03;;
20124;SDS011;10223;50.862;4.360;2023-05-08T09:06:10;95.77;;;37.47;;
20124;SDS011;10223;50.862;4.360;2023-05-08T09:08:39;95.20;;;35.70;;
20124;SDS011;10223;50.862;4.360;2023-05-08T09:11:07;91.93;;;35.63;;
20124;SDS011;10223;50.862;4.360;2023-05-08T09:13:35;96.13;;;35.33;;
20124;SDS011;10223;50.862;4.360;2023-05-08T09:16:05;100.80;;;35.03;;
20124;SDS011;10223;50.862;4.360;2023-05-08T09:18:36;91.90;;;34.00;;
20124;SDS011;10223;50.862;4.360;2023-05-08T09:21:05;82.30;;;33.23;;
20124;SDS011;10223;50.862;4.360;2023-05-08T09:23:34;91.37;;;33.20;;
20124;SDS011;10223;50.862;4.360;2023-05-08T09:26:01;82.53;;;33.27;;
20124;SDS011;10223;50.862;4.360;2023-05-08T09:28:28;81.20;;;32.00;;
20124;SDS011;10223;50.862;4.360;2023-05-08T09:30:56;77.37;;;33.43;;
20124;SDS011;10223;50.862;4.360;2023-05-08T09:33:24;77.60;;;30.00;;
20124;SDS011;10223;50.862;4.360;2023-05-08T09:35:54;70.77;;;30.47;;
20124;SDS011;10223;50.862;4.360;2023-05-08T09:38:32;67.83;;;30.20;;
20124;SDS011;10223;50.862;4.360;2023-05-08T09:41:07;67.47;;;32.23;;
20124;SDS011;10223;50.862;4.360;2023-05-08T09:43:35;69.07;;;29.23;;
20124;SDS011;10223;50.862;4.360;2023-05-08T09:46:18;70.20;;;29.23;;
20124;SDS011;10223;50.862;4.360;2023-05-08T09:48:47;63.93;;;27.87;;
20124;SDS011;10223;50.862;4.360;2023-05-08T09:51:15;60.42;;;28.42;;
20124;SDS011;10223;50.862;4.360;2023-05-08T09:53:43;68.27;;;29.47;;
20124;SDS011;10223;50.862;4.360;2023-05-08T09:56:10;74.95;;;29.25;;
20124;SDS011;10223;50.862;4.360;2023-05-08T09:58:38;61.93;;;29.83;;
20124;SDS011;10223;50.862;4.360;2023-05-08T10:01:06;54.88;;;26.65;;
20124;SDS011;10223;50.862;4.360;2023-05-08T10:03:45;58.03;;;28.48;;
20124;SDS011;10223;50.862;4.360;2023-05-08T10:06:13;57.28;;;27.40;;
20124;SDS011;10223;50.862;4.360;2023-05-08T10:08:42;58.67;;;27.55;;
20124;SDS011;10223;50.862;4.360;2023-05-08T10:11:13;57.28;;;27.40;;
20124;SDS011;10223;50.862;4.360;2023-05-08T10:13:41;54.50;;;26.87;;
20124;SDS011;10223;50.862;4.360;2023-05-08T10:16:10;51.20;;;25.45;;
20124;SDS011;10223;50.862;4.360;2023-05-08T10:18:42;49.43;;;25.37;;
20124;SDS011;10223;50.862;4.360;2023-05-08T10:21:13;55.08;;;24.92;;
20124;SDS011;10223;50.862;4.360;2023-05-08T10:23:43;48.03;;;25.73;;
20124;SDS011;10223;50.862;4.360;2023-05-08T10:26:12;46.17;;;21.97;;
20124;SDS011;10223;50.862;4.360;2023-05-08T10:28:49;46.27;;;23.53;;
20124;SDS011;10223;50.862;4.360;2023-05-08T10:31:20;47.63;;;22.65;;
20124;SDS011;10223;50.862;4.360;2023-05-08T10:33:50;39.55;;;20.65;;
20124;SDS011;10223;50.862;4.360;2023-05-08T10:36:21;39.70;;;21.80;;
20124;SDS011;10223;50.862;4.360;2023-05-08T10:38:50;42.22;;;21.58;;
20124;SDS011;10223;50.862;4.360;2023-05-08T10:41:18;37.72;;;19.67;;
20124;SDS011;10223;50.862;4.360;2023-05-08T10:43:48;36.50;;;19.38;;
20124;SDS011;10223;50.862;4.360;2023-05-08T10:46:19;35.08;;;18.45;;
20124;SDS011;10223;50.862;4.360;2023-05-08T10:48:53;48.15;;;20.52;;
20124;SDS011;10223;50.862;4.360;2023-05-08T10:51:26;37.28;;;18.55;;
20124;SDS011;10223;50.862;4.360;2023-05-08T10:54:06;33.03;;;17.95;;
20124;SDS011;10223;50.862;4.360;2023-05-08T10:56:38;35.25;;;18.52;;
20124;SDS011;10223;50.862;4.360;2023-05-08T10:59:05;37.10;;;18.13;;
20124;SDS011;10223;50.862;4.360;2023-05-08T11:01:38;32.95;;;18.38;;
20124;SDS011;10223;50.862;4.360;2023-05-08T11:04:19;31.88;;;16.70;;
20124;SDS011;10223;50.862;4.360;2023-05-08T11:06:55;34.08;;;17.75;;
20124;SDS011;10223;50.862;4.360;2023-05-08T11:12:20;28.63;;;16.05;;
20124;SDS011;10223;50.862;4.360;2023-05-08T11:14:56;32.67;;;17.45;;
20124;SDS011;10223;50.862;4.360;2023-05-08T11:17:30;30.92;;;16.75;;
20124;SDS011;10223;50.862;4.360;2023-05-08T11:19:58;34.50;;;17.85;;
20124;SDS011;10223;50.862;4.360;2023-05-08T11:22:31;27.02;;;15.88;;
20124;SDS011;10223;50.862;4.360;2023-05-08T11:25:00;38.40;;;16.23;;
20124;SDS011;10223;50.862;4.360;2023-05-08T11:27:40;31.00;;;16.63;;
20124;SDS011;10223;50.862;4.360;2023-05-08T11:30:44;29.63;;;16.63;;
20124;SDS011;10223;50.862;4.360;2023-05-08T11:33:14;33.10;;;17.65;;
20124;SDS011;10223;50.862;4.360;2023-05-08T11:35:47;38.50;;;18.73;;
20124;SDS011;10223;50.862;4.360;2023-05-08T11:38:16;33.60;;;17.35;;
20124;SDS011;10223;50.862;4.360;2023-05-08T11:40:47;36.17;;;20.23;;
20124;SDS011;10223;50.862;4.360;2023-05-08T11:43:30;36.60;;;19.35;;
20124;SDS011;10223;50.862;4.360;2023-05-08T11:46:40;34.13;;;18.65;;
20124;SDS011;10223;50.862;4.360;2023-05-08T11:49:12;35.17;;;17.63;;
20124;SDS011;10223;50.862;4.360;2023-05-08T11:51:41;32.22;;;16.88;;
20124;SDS011;10223;50.862;4.360;2023-05-08T11:54:13;33.08;;;17.42;;
20124;SDS011;10223;50.862;4.360;2023-05-08T11:56:43;31.90;;;17.40;;
20124;SDS011;10223;50.862;4.360;2023-05-08T11:59:12;31.08;;;18.33;;
20124;SDS011;10223;50.862;4.360;2023-05-08T12:01:39;36.00;;;16.85;;
20124;SDS011;10223;50.862;4.360;2023-05-08T12:04:07;25.73;;;16.20;;
20124;SDS011;10223;50.862;4.360;2023-05-08T12:06:36;29.77;;;17.77;;
20124;SDS011;10223;50.862;4.360;2023-05-08T12:09:09;30.90;;;17.02;;
20124;SDS011;10223;50.862;4.360;2023-05-08T12:11:39;38.83;;;16.95;;
20124;SDS011;10223;50.862;4.360;2023-05-08T12:14:09;30.63;;;16.23;;
20124;SDS011;10223;50.862;4.360;2023-05-08T12:16:37;31.65;;;17.15;;
20124;SDS011;10223;50.862;4.360;2023-05-08T12:19:08;30.77;;;17.05;;
20124;SDS011;10223;50.862;4.360;2023-05-08T12:21:36;126.68;;;26.27;;
20124;SDS011;10223;50.862;4.360;2023-05-08T12:24:07;43.80;;;17.23;;
20124;SDS011;10223;50.862;4.360;2023-05-08T12:26:36;28.52;;;15.23;;
20124;SDS011;10223;50.862;4.360;2023-05-08T12:29:06;25.95;;;15.15;;
20124;SDS011;10223;50.862;4.360;2023-05-08T12:31:36;34.13;;;17.15;;
20124;SDS011;10223;50.862;4.360;2023-05-08T12:34:04;33.95;;;17.00;;
20124;SDS011;10223;50.862;4.360;2023-05-08T12:36:34;37.80;;;18.48;;
20124;SDS011;10223;50.862;4.360;2023-05-08T12:39:08;30.63;;;16.27;;
20124;SDS011;10223;50.862;4.360;2023-05-08T12:41:40;47.85;;;18.48;;
20124;SDS011;10223;50.862;4.360;2023-05-08T12:44:15;30.75;;;16.45;;
20124;SDS011;10223;50.862;4.360;2023-05-08T12:46:48;32.50;;;16.35;;
20124;SDS011;10223;50.862;4.360;2023-05-08T12:49:23;36.38;;;15.70;;
20124;SDS011;10223;50.862;4.360;2023-05-08T12:51:59;34.85;;;15.43;;
20124;SDS011;10223;50.862;4.360;2023-05-08T12:54:33;33.38;;;15.60;;
20124;SDS011;10223;50.862;4.360;2023-05-08T12:57:05;30.40;;;16.63;;
20124;SDS011;10223;50.862;4.360;2023-05-08T12:59:36;37.13;;;17.15;;
20124;SDS011;10223;50.862;4.360;2023-05-08T13:02:08;30.45;;;15.85;;
20124;SDS011;10223;50.862;4.360;2023-05-08T13:04:40;36.10;;;16.38;;
20124;SDS011;10223;50.862;4.360;2023-05-08T13:07:07;30.10;;;14.68;;
20124;SDS011;10223;50.862;4.360;2023-05-08T13:09:34;26.67;;;14.35;;
20124;SDS011;10223;50.862;4.360;2023-05-08T13:12:01;34.25;;;16.23;;
20124;SDS011;10223;50.862;4.360;2023-05-08T13:14:30;34.20;;;18.15;;
20124;SDS011;10223;50.862;4.360;2023-05-08T13:16:58;36.17;;;17.90;;
20124;SDS011;10223;50.862;4.360;2023-05-08T13:19:29;29.98;;;15.60;;
20124;SDS011;10223;50.862;4.360;2023-05-08T13:21:56;28.38;;;14.32;;
20124;SDS011;10223;50.862;4.360;2023-05-08T13:24:23;31.15;;;14.70;;
20124;SDS011;10223;50.862;4.360;2023-05-08T13:26:51;34.78;;;15.15;;
20124;SDS011;10223;50.862;4.360;2023-05-08T13:29:18;25.67;;;13.35;;
20124;SDS011;10223;50.862;4.360;2023-05-08T13:31:47;29.80;;;13.95;;
20124;SDS011;10223;50.862;4.360;2023-05-08T13:34:13;25.90;;;13.15;;
20124;SDS011;10223;50.862;4.360;2023-05-08T13:36:42;26.33;;;14.60;;
20124;SDS011;10223;50.862;4.360;2023-05-08T13:39:09;24.35;;;14.25;;
20124;SDS011;10223;50.862;4.360;2023-05-08T13:41:36;27.52;;;15.02;;
20124;SDS011;10223;50.862;4.360;2023-05-08T13:44:03;31.25;;;14.98;;
20124;SDS011;10223;50.862;4.360;2023-05-08T13:46:30;24.42;;;14.73;;
20124;SDS011;10223;50.862;4.360;2023-05-08T13:48:57;32.28;;;18.55;;
20124;SDS011;10223;50.862;4.360;2023-05-08T13:51:24;25.63;;;16.38;;
20124;SDS011;10223;50.862;4.360;2023-05-08T13:53:52;31.83;;;16.27;;
20124;SDS011;10223;50.862;4.360;2023-05-08T13:56:19;31.15;;;18.90;;
20124;SDS011;10223;50.862;4.360;2023-05-08T13:58:46;38.45;;;19.73;;
20124;SDS011;10223;50.862;4.360;2023-05-08T14:01:13;33.90;;;19.52;;
20124;SDS011;10223;50.862;4.360;2023-05-08T14:03:40;37.22;;;19.02;;
20124;SDS011;10223;50.862;4.360;2023-05-08T14:06:07;34.55;;;18.73;;
20124;SDS011;10223;50.862;4.360;2023-05-08T14:08:34;29.52;;;15.05;;
20124;SDS011;10223;50.862;4.360;2023-05-08T14:11:02;28.98;;;15.82;;
20124;SDS011;10223;50.862;4.360;2023-05-08T14:13:29;24.23;;;14.50;;
20124;SDS011;10223;50.862;4.360;2023-05-08T14:15:56;23.38;;;14.05;;
20124;SDS011;10223;50.862;4.360;2023-05-08T14:18:25;23.02;;;13.48;;
20124;SDS011;10223;50.862;4.360;2023-05-08T14:20:52;22.52;;;13.25;;
20124;SDS011;10223;50.862;4.360;2023-05-08T14:23:18;24.05;;;12.23;;
20124;SDS011;10223;50.862;4.360;2023-05-08T14:25:45;20.73;;;12.15;;
20124;SDS011;10223;50.862;4.360;2023-05-08T14:28:14;17.83;;;11.32;;
20124;SDS011;10223;50.862;4.360;2023-05-08T14:30:41;22.35;;;11.93;;
20124;SDS011;10223;50.862;4.360;2023-05-08T14:33:08;20.95;;;11.68;;
20124;SDS011;10223;50.862;4.360;2023-05-08T14:35:35;24.10;;;14.10;;
20124;SDS011;10223;50.862;4.360;2023-05-08T14:38:01;26.95;;;15.88;;
20124;SDS011;10223;50.862;4.360;2023-05-08T14:40:29;22.23;;;12.63;;
20124;SDS011;10223;50.862;4.360;2023-05-08T14:42:56;23.48;;;13.90;;